createdAt,value
2018-06-30T00:01:57.740Z,20.70
2018-06-30T00:06:54.169Z,20.60
2018-06-30T00:09:22.555Z,20.50
2018-06-30T00:11:50.912Z,20.50
2018-06-30T00:14:19.324Z,20.50
2018-06-30T00:16:47.676Z,20.40
2018-06-30T00:19:16.041Z,20.40
2018-06-30T00:21:44.387Z,20.30
2018-06-30T00:24:12.764Z,20.30
2018-06-30T00:26:41.103Z,20.20
2018-06-30T00:29:09.511Z,20.10
2018-06-30T00:31:37.859Z,20.10
2018-06-30T00:34:06.211Z,20.10
2018-06-30T00:36:34.589Z,20.10
2018-06-30T00:39:03.050Z,20.00
2018-06-30T00:41:31.429Z,20.00
2018-06-30T00:43:59.787Z,20.00
2018-06-30T00:46:28.179Z,19.90
2018-06-30T00:48:56.526Z,19.90
2018-06-30T00:51:24.887Z,19.90
2018-06-30T00:53:53.266Z,19.80
2018-06-30T00:56:21.652Z,19.80
2018-06-30T00:58:50.016Z,19.70
2018-06-30T01:01:18.396Z,19.70
2018-06-30T01:03:46.751Z,19.60
2018-06-30T01:06:15.204Z,19.60
2018-06-30T01:08:43.580Z,19.50
2018-06-30T01:13:40.089Z,19.50
2018-06-30T01:16:08.504Z,19.50
2018-06-30T01:21:04.987Z,19.40
2018-06-30T01:23:33.351Z,19.30
2018-06-30T01:28:29.772Z,19.20
2018-06-30T01:30:58.156Z,19.20
2018-06-30T01:33:26.488Z,19.20
2018-06-30T01:35:54.855Z,19.10
2018-06-30T01:38:23.232Z,19.10
2018-06-30T01:40:51.655Z,19.00
2018-06-30T01:43:20.044Z,18.90
2018-06-30T01:45:48.513Z,18.90
2018-06-30T01:48:16.859Z,18.80
2018-06-30T01:50:45.217Z,18.70
2018-06-30T01:58:09.735Z,18.60
2018-06-30T02:00:38.111Z,18.50
2018-06-30T02:03:06.511Z,18.50
2018-06-30T02:08:02.945Z,18.40
2018-06-30T02:12:59.401Z,18.30
2018-06-30T02:15:27.778Z,18.30
2018-06-30T02:20:24.198Z,18.20
2018-06-30T02:22:52.579Z,18.10
2018-06-30T02:25:20.919Z,18.10
2018-06-30T02:27:49.323Z,18.10
2018-06-30T02:30:17.656Z,18.00
2018-06-30T02:35:14.156Z,18.00
2018-06-30T02:37:42.514Z,17.90
2018-06-30T02:40:10.880Z,17.90
2018-06-30T02:42:39.255Z,17.80
2018-06-30T02:45:07.601Z,17.80
2018-06-30T02:47:35.972Z,17.70
2018-06-30T02:50:04.860Z,17.70
2018-06-30T02:52:33.255Z,17.60
2018-06-30T02:55:01.615Z,17.50
2018-06-30T02:57:29.979Z,17.50
2018-06-30T02:59:58.328Z,17.40
2018-06-30T03:02:26.684Z,17.30
2018-06-30T03:04:55.051Z,17.30
2018-06-30T03:07:23.420Z,17.30
2018-06-30T03:09:51.783Z,17.30
2018-06-30T03:12:20.123Z,17.20
2018-06-30T03:17:16.568Z,17.20
2018-06-30T03:22:12.968Z,17.00
2018-06-30T03:24:41.289Z,17.00
2018-06-30T03:27:09.639Z,17.00
2018-06-30T03:29:37.946Z,16.90
2018-06-30T03:32:06.346Z,16.80
2018-06-30T03:34:34.664Z,16.80
2018-06-30T03:37:03.023Z,16.70
2018-06-30T03:39:31.355Z,16.70
2018-06-30T03:41:59.690Z,16.70
2018-06-30T03:44:28.031Z,16.70
2018-06-30T03:49:24.447Z,16.60
2018-06-30T03:51:52.838Z,16.60
2018-06-30T03:54:21.177Z,16.60
2018-06-30T03:56:49.559Z,16.50
2018-06-30T03:59:17.911Z,16.50
2018-06-30T04:01:46.239Z,16.50
2018-06-30T04:04:14.599Z,16.50
2018-06-30T04:06:42.951Z,16.50
2018-06-30T04:09:12.969Z,16.40
2018-06-30T04:11:41.383Z,16.50
2018-06-30T04:14:10.044Z,16.50
2018-06-30T04:16:38.388Z,16.50
2018-06-30T04:19:13.966Z,16.50
2018-06-30T04:21:43.852Z,16.50
2018-06-30T04:24:12.228Z,16.50
2018-06-30T04:26:41.631Z,16.50
2018-06-30T04:29:10.008Z,16.50
2018-06-30T04:31:38.336Z,16.60
2018-06-30T04:34:07.222Z,16.60
2018-06-30T04:36:35.580Z,16.60
2018-06-30T04:41:34.087Z,16.70
2018-06-30T04:44:02.447Z,16.70
2018-06-30T04:46:30.804Z,16.80
2018-06-30T04:48:59.174Z,16.80
2018-06-30T04:51:27.539Z,16.80
2018-06-30T04:53:55.891Z,16.80
2018-06-30T04:56:24.227Z,16.90
2018-06-30T04:58:52.748Z,16.90
2018-06-30T05:03:49.196Z,17.00
2018-06-30T05:06:17.541Z,17.00
2018-06-30T05:08:45.898Z,17.00
2018-06-30T05:11:14.220Z,17.00
2018-06-30T05:13:42.627Z,17.10
2018-06-30T05:16:11.001Z,17.10
2018-06-30T05:18:39.347Z,17.10
2018-06-30T05:21:07.676Z,17.10
2018-06-30T05:23:36.080Z,17.10
2018-06-30T05:26:04.436Z,17.20
2018-06-30T05:28:32.795Z,17.20
2018-06-30T05:31:01.111Z,17.20
2018-06-30T05:33:29.512Z,17.20
2018-06-30T05:35:57.815Z,17.20
2018-06-30T05:40:54.247Z,17.30
2018-06-30T05:43:22.604Z,17.40
2018-06-30T05:45:51.000Z,17.40
2018-06-30T05:48:19.311Z,17.40
2018-06-30T05:50:47.673Z,17.50
2018-06-30T05:53:16.006Z,17.50
2018-06-30T05:55:44.572Z,17.50
2018-06-30T05:58:12.891Z,17.50
2018-06-30T06:00:41.276Z,17.50
2018-06-30T06:03:09.610Z,17.50
2018-06-30T06:05:37.947Z,17.60
2018-06-30T06:08:06.359Z,17.70
2018-06-30T06:10:36.577Z,17.70
2018-06-30T06:13:06.544Z,17.70
2018-06-30T06:15:35.661Z,17.70
2018-06-30T06:18:04.256Z,17.80
2018-06-30T06:20:32.706Z,17.90
2018-06-30T06:23:01.031Z,18.00
2018-06-30T06:27:57.590Z,18.00
2018-06-30T06:30:25.986Z,18.10
2018-06-30T06:32:54.365Z,18.10
2018-06-30T06:37:50.739Z,18.20
2018-06-30T06:40:19.099Z,18.30
2018-06-30T06:42:47.688Z,18.40
2018-06-30T06:45:16.048Z,18.50
2018-06-30T06:50:12.463Z,18.50
2018-06-30T06:52:40.812Z,18.60
2018-06-30T06:55:09.180Z,18.60
2018-06-30T06:57:37.571Z,18.70
2018-06-30T07:00:06.135Z,18.80
2018-06-30T07:02:34.472Z,18.80
2018-06-30T07:05:02.840Z,18.90
2018-06-30T07:07:31.176Z,19.10
2018-06-30T07:09:59.548Z,19.10
2018-06-30T07:12:27.960Z,19.20
2018-06-30T07:14:56.428Z,19.20
2018-06-30T07:17:24.763Z,19.30
2018-06-30T07:19:53.107Z,19.30
2018-06-30T07:22:21.438Z,19.40
2018-06-30T07:27:17.880Z,19.50
2018-06-30T07:29:46.492Z,19.60
2018-06-30T07:32:14.908Z,19.70
2018-06-30T07:34:43.272Z,19.80
2018-06-30T07:37:11.794Z,19.80
2018-06-30T07:39:40.151Z,19.90
2018-06-30T07:42:08.526Z,20.00
2018-06-30T07:44:36.840Z,20.10
2018-06-30T07:47:05.447Z,20.20
2018-06-30T07:49:33.778Z,20.20
2018-06-30T07:52:02.135Z,20.20
2018-06-30T07:54:30.467Z,20.30
2018-06-30T07:56:58.838Z,20.40
2018-06-30T07:59:27.186Z,20.50
2018-06-30T08:01:55.550Z,20.50
2018-06-30T08:04:23.878Z,20.70
2018-06-30T08:06:52.227Z,20.80
2018-06-30T08:09:20.549Z,20.90
2018-06-30T08:16:45.321Z,21.20
2018-06-30T08:19:13.655Z,21.30
2018-06-30T08:26:38.136Z,21.50
2018-06-30T08:29:06.543Z,21.60
2018-06-30T08:34:02.950Z,21.70
2018-06-30T08:36:31.301Z,21.80
2018-06-30T08:38:59.659Z,21.90
2018-06-30T08:41:28.050Z,21.90
2018-06-30T08:43:56.372Z,22.10
2018-06-30T08:46:24.725Z,22.20
2018-06-30T08:48:53.059Z,22.20
2018-06-30T08:51:22.316Z,22.30
2018-06-30T08:53:52.304Z,22.40
2018-06-30T08:58:50.659Z,22.50
2018-06-30T09:03:48.146Z,22.80
2018-06-30T09:06:16.550Z,22.90
2018-06-30T09:08:44.830Z,22.90
2018-06-30T09:11:13.198Z,23.00
2018-06-30T09:13:41.527Z,23.10
2018-06-30T09:16:09.924Z,23.30
2018-06-30T09:18:38.242Z,23.50
2018-06-30T09:21:06.579Z,23.60
2018-06-30T09:23:34.937Z,23.70
2018-06-30T09:26:03.287Z,23.80
2018-06-30T09:28:31.693Z,23.80
2018-06-30T09:33:28.111Z,23.90
2018-06-30T09:35:56.483Z,24.00
2018-06-30T09:38:24.835Z,24.00
2018-06-30T09:40:53.161Z,24.00
2018-06-30T09:45:49.622Z,24.10
2018-06-30T09:50:46.178Z,24.40
2018-06-30T09:58:10.711Z,24.70
2018-06-30T10:00:44.524Z,24.80
2018-06-30T10:03:13.004Z,24.80
2018-06-30T10:05:41.352Z,24.90
2018-06-30T10:08:09.789Z,25.10
2018-06-30T10:10:38.117Z,25.20
2018-06-30T10:13:06.484Z,25.30
2018-06-30T10:15:34.871Z,25.40
2018-06-30T10:18:03.267Z,25.50
2018-06-30T10:22:59.704Z,25.70
2018-06-30T10:25:28.032Z,25.80
2018-06-30T10:27:56.383Z,25.90
2018-06-30T10:32:52.795Z,26.00
2018-06-30T10:35:21.193Z,26.20
2018-06-30T10:37:49.535Z,26.30
2018-06-30T10:40:17.868Z,26.40
2018-06-30T10:45:14.272Z,26.50
2018-06-30T10:47:43.509Z,26.60
2018-06-30T10:52:39.912Z,26.90
2018-06-30T10:55:08.274Z,27.00
2018-06-30T10:57:36.629Z,27.20
2018-06-30T11:02:33.280Z,27.20
2018-06-30T11:05:01.675Z,27.20
2018-06-30T11:07:30.011Z,27.40
2018-06-30T11:09:58.374Z,27.50
2018-06-30T11:12:26.712Z,27.70
2018-06-30T11:17:23.214Z,27.90
2018-06-30T11:19:51.601Z,28.00
2018-06-30T11:22:20.055Z,28.00
2018-06-30T11:24:48.391Z,28.10
2018-06-30T11:27:16.748Z,28.20
2018-06-30T11:29:45.113Z,28.40
2018-06-30T11:32:13.519Z,28.60
2018-06-30T11:34:41.939Z,28.80
2018-06-30T11:37:10.267Z,28.90
2018-06-30T11:39:38.639Z,28.80
2018-06-30T11:42:07.108Z,28.80
2018-06-30T11:44:35.967Z,28.90
2018-06-30T11:47:04.331Z,29.00
2018-06-30T11:49:32.755Z,29.20
2018-06-30T11:52:01.176Z,29.40
2018-06-30T11:54:29.520Z,29.50
2018-06-30T11:56:57.853Z,29.60
2018-06-30T11:59:26.226Z,29.60
2018-06-30T12:01:54.580Z,29.60
2018-06-30T12:04:22.944Z,29.70
2018-06-30T12:06:51.271Z,29.90
2018-06-30T12:11:47.710Z,30.10
2018-06-30T12:16:44.180Z,30.30
2018-06-30T12:21:40.608Z,30.40
2018-06-30T12:24:08.968Z,30.20
2018-06-30T12:26:37.303Z,30.30
2018-06-30T12:29:05.659Z,30.30
2018-06-30T12:31:33.991Z,30.50
2018-06-30T12:34:02.364Z,30.70
2018-06-30T12:36:30.704Z,30.80
2018-06-30T12:41:27.124Z,31.10
2018-06-30T12:43:55.515Z,31.10
2018-06-30T12:46:23.860Z,31.30
2018-06-30T12:48:52.207Z,31.40
2018-06-30T12:51:20.554Z,31.50
2018-06-30T12:53:48.892Z,31.60
2018-06-30T12:56:17.278Z,31.80
2018-06-30T12:58:45.614Z,31.80
2018-06-30T13:01:14.005Z,31.90
2018-06-30T13:03:42.381Z,32.10
2018-06-30T13:06:10.707Z,32.20
2018-06-30T13:08:39.064Z,32.40
2018-06-30T13:11:07.440Z,32.60
2018-06-30T13:13:35.824Z,32.60
2018-06-30T13:16:04.240Z,32.70
2018-06-30T13:18:32.556Z,32.70
2018-06-30T13:21:00.900Z,32.50
2018-06-30T13:23:29.233Z,32.30
2018-06-30T13:25:57.602Z,32.40
2018-06-30T13:28:25.916Z,32.50
2018-06-30T13:30:54.340Z,32.70
2018-06-30T13:35:50.743Z,33.10
2018-06-30T13:38:19.084Z,33.20
2018-06-30T13:40:47.503Z,33.20
2018-06-30T13:43:15.838Z,33.30
2018-06-30T13:45:44.192Z,33.20
2018-06-30T13:48:12.552Z,33.10
2018-06-30T13:50:40.905Z,33.10
2018-06-30T13:53:09.241Z,33.10
2018-06-30T14:00:33.908Z,33.50
2018-06-30T14:03:02.239Z,33.40
2018-06-30T14:05:30.591Z,33.40
2018-06-30T14:07:58.920Z,33.30
2018-06-30T14:10:27.266Z,33.50
2018-06-30T14:12:55.682Z,33.80
2018-06-30T14:15:23.999Z,33.80
2018-06-30T14:17:52.321Z,33.80
2018-06-30T14:27:44.880Z,33.80
2018-06-30T14:30:13.495Z,34.00
2018-06-30T14:32:42.289Z,34.10
2018-06-30T14:35:10.763Z,34.10
2018-06-30T14:37:39.650Z,34.10
2018-06-30T14:40:08.963Z,34.10
2018-06-30T14:42:37.339Z,34.10
2018-06-30T14:45:05.691Z,34.20
2018-06-30T14:47:34.051Z,34.20
2018-06-30T14:50:02.406Z,34.40
2018-06-30T14:52:30.820Z,34.00
2018-06-30T14:54:59.147Z,34.00
2018-06-30T14:57:27.525Z,33.90
2018-06-30T14:59:55.851Z,33.80
2018-06-30T15:02:24.207Z,34.00
2018-06-30T15:04:52.532Z,34.30
2018-06-30T15:07:20.974Z,34.40
2018-06-30T15:09:49.251Z,34.60
2018-06-30T15:12:17.620Z,34.70
2018-06-30T15:14:45.977Z,34.80
2018-06-30T15:17:15.097Z,34.90
2018-06-30T15:19:43.880Z,34.90
2018-06-30T15:24:41.280Z,34.70
2018-06-30T15:27:10.304Z,34.70
2018-06-30T15:29:39.647Z,34.80
2018-06-30T15:32:08.615Z,34.70
2018-06-30T15:34:37.478Z,34.80
2018-06-30T15:37:08.549Z,35.00
2018-06-30T15:39:38.597Z,35.10
2018-06-30T15:42:08.876Z,35.20
2018-06-30T15:44:37.884Z,35.50
2018-06-30T15:47:06.943Z,35.60
2018-06-30T15:49:35.727Z,35.70
2018-06-30T15:52:05.111Z,35.80
2018-06-30T15:54:33.867Z,35.80
2018-06-30T15:59:31.336Z,35.70
2018-06-30T16:02:00.457Z,35.70
2018-06-30T16:06:57.465Z,36.00
2018-06-30T16:09:25.811Z,35.80
2018-06-30T16:14:22.242Z,35.70
2018-06-30T16:16:50.595Z,35.80
2018-06-30T16:19:19.012Z,35.90
2018-06-30T16:21:47.483Z,35.90
2018-06-30T16:24:15.897Z,36.10
2018-06-30T16:26:44.228Z,36.20
2018-06-30T16:29:12.636Z,35.80
2018-06-30T16:34:09.106Z,35.80
2018-06-30T16:36:37.446Z,35.90
2018-06-30T16:39:07.613Z,36.00
2018-06-30T16:41:35.930Z,36.10
2018-06-30T16:44:04.502Z,36.00
2018-06-30T16:46:32.835Z,36.00
2018-06-30T16:51:29.284Z,36.30
2018-06-30T16:56:25.812Z,36.60
2018-06-30T16:58:54.336Z,36.60
2018-06-30T17:01:22.662Z,36.60
2018-06-30T17:03:51.095Z,36.70
2018-06-30T17:06:19.602Z,36.90
2018-06-30T17:08:47.853Z,36.90
2018-06-30T17:13:44.279Z,37.20
2018-06-30T17:16:12.623Z,37.30
2018-06-30T17:18:40.972Z,37.30
2018-06-30T17:21:09.409Z,37.30
2018-06-30T17:23:37.763Z,37.50
2018-06-30T17:26:06.236Z,37.60
2018-06-30T17:28:34.482Z,37.80
2018-06-30T17:33:30.883Z,37.70
2018-06-30T17:35:59.230Z,37.60
2018-06-30T17:38:27.582Z,37.70
2018-06-30T17:40:55.943Z,37.90
2018-06-30T17:43:24.290Z,38.00
2018-06-30T17:45:52.620Z,38.20
2018-06-30T17:48:20.989Z,38.30
2018-06-30T17:50:49.336Z,38.30
2018-06-30T17:53:17.696Z,38.30
2018-06-30T17:55:46.020Z,38.10
2018-06-30T17:58:14.364Z,38.10
2018-06-30T18:00:42.703Z,38.30
2018-06-30T18:03:11.152Z,38.50
2018-06-30T18:05:39.483Z,38.50
2018-06-30T18:08:07.815Z,38.50
2018-06-30T18:10:36.172Z,38.40
2018-06-30T18:13:04.575Z,38.00
2018-06-30T18:15:32.984Z,37.40
2018-06-30T18:18:01.342Z,36.60
2018-06-30T18:22:57.765Z,35.30
2018-06-30T18:25:26.111Z,34.80
2018-06-30T18:27:54.468Z,34.50
2018-06-30T18:30:22.800Z,34.20
2018-06-30T18:32:51.142Z,33.90
2018-06-30T18:35:19.496Z,33.50
2018-06-30T18:40:15.925Z,32.70
2018-06-30T18:42:44.264Z,32.30
2018-06-30T18:45:12.652Z,31.90
2018-06-30T18:47:40.989Z,31.50
2018-06-30T18:52:37.446Z,30.90
2018-06-30T18:55:06.078Z,30.70
2018-06-30T18:57:34.442Z,30.50
2018-06-30T19:00:02.820Z,30.30
2018-06-30T19:02:31.155Z,30.10
2018-06-30T19:07:28.041Z,29.70
2018-06-30T19:09:57.129Z,29.50
2018-06-30T19:12:25.983Z,29.30
2018-06-30T19:14:55.905Z,29.10
2018-06-30T19:17:25.278Z,28.90
2018-06-30T19:19:54.311Z,28.70
2018-06-30T19:22:24.396Z,28.50
2018-06-30T19:27:22.665Z,28.00
2018-06-30T19:29:52.682Z,27.80
2018-06-30T19:32:21.637Z,27.70
2018-06-30T19:34:50.780Z,27.40
2018-06-30T19:37:19.144Z,27.30
2018-06-30T19:39:47.523Z,27.20
2018-06-30T19:42:15.947Z,27.00
2018-06-30T19:44:44.304Z,26.80
2018-06-30T19:47:12.661Z,26.70
2018-06-30T19:49:41.040Z,26.60
2018-06-30T19:52:09.420Z,26.40
2018-06-30T19:54:37.771Z,26.20
2018-06-30T19:57:06.232Z,26.10
2018-06-30T19:59:34.671Z,25.90
2018-06-30T20:02:03.171Z,25.70
2018-06-30T20:04:31.600Z,25.50
2018-06-30T20:07:00.117Z,25.40
2018-06-30T20:09:28.471Z,25.20
2018-06-30T20:14:24.945Z,25.00
2018-06-30T20:16:53.307Z,24.90
2018-06-30T20:21:49.736Z,24.60
2018-06-30T20:24:18.099Z,24.50
2018-06-30T20:26:46.472Z,24.40
2018-06-30T20:29:14.811Z,24.30
2018-06-30T20:31:43.183Z,24.20
2018-06-30T20:39:08.688Z,23.80
2018-06-30T20:41:37.428Z,23.70
2018-06-30T20:46:34.079Z,23.40
2018-06-30T20:56:26.815Z,23.00
2018-06-30T20:58:55.477Z,23.00
2018-06-30T21:01:23.917Z,22.90
2018-06-30T21:03:52.347Z,22.80
2018-06-30T21:06:20.808Z,22.70
2018-06-30T21:08:49.143Z,22.60
2018-06-30T21:11:17.579Z,22.40
2018-06-30T21:13:45.937Z,22.40
2018-06-30T21:18:42.397Z,22.20
2018-06-30T21:23:38.804Z,22.00
2018-06-30T21:26:07.228Z,22.00
2018-06-30T21:31:03.703Z,21.80
2018-06-30T21:33:32.047Z,21.80
2018-06-30T21:36:00.439Z,21.70
2018-06-30T21:43:24.937Z,21.40
2018-06-30T21:45:53.265Z,21.30
2018-06-30T21:48:21.620Z,21.20
2018-06-30T21:50:49.970Z,21.10
2018-06-30T21:53:18.331Z,21.00
2018-06-30T21:55:46.669Z,20.90
2018-06-30T21:58:15.056Z,20.80
2018-06-30T22:00:49.691Z,20.70
2018-06-30T22:03:21.136Z,20.60
2018-06-30T22:05:49.633Z,20.50
2018-06-30T22:08:17.999Z,20.50
2018-06-30T22:10:46.492Z,20.50
2018-06-30T22:13:14.857Z,20.40
2018-06-30T22:15:43.236Z,20.30
2018-06-30T22:18:11.677Z,20.20
2018-06-30T22:20:40.036Z,20.20
2018-06-30T22:23:08.541Z,20.20
2018-06-30T22:25:36.899Z,20.10
2018-06-30T22:28:05.338Z,20.00
2018-06-30T22:30:33.700Z,20.00
2018-06-30T22:35:30.164Z,19.90
2018-06-30T22:37:58.531Z,19.80
2018-06-30T22:40:26.857Z,19.70
2018-06-30T22:42:55.247Z,19.60
2018-06-30T22:45:23.572Z,19.50
2018-06-30T22:50:20.660Z,19.40
2018-06-30T22:52:49.012Z,19.30
2018-06-30T22:57:46.131Z,19.20
2018-06-30T23:00:17.560Z,19.20
2018-06-30T23:02:45.960Z,19.10
2018-06-30T23:05:14.377Z,19.10
2018-06-30T23:07:42.750Z,19.00
2018-06-30T23:10:11.632Z,18.90
2018-06-30T23:12:40.084Z,18.90
2018-06-30T23:15:08.700Z,18.80
2018-06-30T23:17:37.265Z,18.80
2018-06-30T23:20:06.328Z,18.70
2018-06-30T23:22:57.036Z,18.70
2018-06-30T23:25:26.908Z,18.70
2018-06-30T23:27:55.416Z,18.60
2018-06-30T23:30:24.320Z,18.50
2018-06-30T23:32:52.713Z,18.50
2018-06-30T23:35:22.040Z,18.40
2018-06-30T23:37:50.486Z,18.30
2018-06-30T23:40:18.842Z,18.30
2018-06-30T23:45:15.433Z,18.20
2018-06-30T23:47:43.804Z,18.10
2018-06-30T23:50:12.209Z,18.10
2018-06-30T23:52:40.558Z,18.10
2018-06-30T23:55:09.547Z,18.00
2018-06-30T23:57:38.420Z,18.00
